To NAV CANADA Home Page Login to a new session Search on AWWS site Feedback and Comments Disclaimer Vers la page française équivalente Tips FAQ What's new on the site To the Forecasts and Observations / NOTAM section To "File a Flight Plan" website Publications and other links Update of the User's profile FIC Telephone Numbers My Weather Data Folder Route Weather Data Regional Weather Data Local Weather Data To the Forecasts and Observations / NOTAM section
Request Generated 03/31/2015 at 01:59:36 UTC . Weather information available at that time is displayed.

METAR/TAF

MONTREAL/PIERRE-ELLIOTT-TRUDEAU INTL/QC    

METAR CYUL 310100Z 26013G19KT 15SM FEW020 FEW080 OVC200 02/M01 A2962
RMK CF1AC1CI8 CF TR AC TR SLP031=
METAR CYUL 310000Z CCA 26016G22KT 15SM FEW018 BKN070 OVC220 02/00
A2959 RMK SF1AC5CI3 SF TR SLP023=
METAR CYUL 310000Z 26016G22KT 15SM FEW018 BKN070 OVC220 02/00 A2959
RMK SF1AC5CI3 SF TR SLP023=
METAR CYUL 302300Z 24012G19KT 15SM -SHRA FEW010 FEW040 OVC220 02/00
A2958 RMK SF1SC2CI6 SF TR SLP019=

TAF CYUL 302340Z 3100/3124 26012G22KT P6SM BKN070 OVC220 TEMPO
3100/3103 5SM -SNRA BR OVC020
FM310300 27012G22KT P6SM FEW025 BKN080
FM311200 27010KT P6SM SKC
BECMG 3116/3118 27015KT
RMK NXT FCST BY 310300Z=
Your time UTC time
Weather data provided by Environment Canada and NAV CANADA